sensor_id;sensor_type;location;lat;lon;timestamp;temperature;humidity
19880;DHT22;10102;50.828;4.416;2024-03-23T00:54:39;9.80;99.90
19880;DHT22;10102;50.828;4.416;2024-03-23T00:57:05;10.30;99.90
19880;DHT22;10102;50.828;4.416;2024-03-23T00:59:30;10.20;99.90
19880;DHT22;10102;50.828;4.416;2024-03-23T01:01:56;10.10;99.90
19880;DHT22;10102;50.828;4.416;2024-03-23T01:04:22;9.90;99.90
19880;DHT22;10102;50.828;4.416;2024-03-23T01:06:48;10.30;99.90
19880;DHT22;10102;50.828;4.416;2024-03-23T01:09:13;10.20;99.90
19880;DHT22;10102;50.828;4.416;2024-03-23T01:11:39;10.20;99.90
19880;DHT22;10102;50.828;4.416;2024-03-23T01:14:05;10.20;99.90
19880;DHT22;10102;50.828;4.416;2024-03-23T01:16:34;10.50;99.90
19880;DHT22;10102;50.828;4.416;2024-03-23T01:19:00;10.00;99.90
19880;DHT22;10102;50.828;4.416;2024-03-23T01:21:25;10.00;99.90
19880;DHT22;10102;50.828;4.416;2024-03-23T01:23:51;9.90;99.90
19880;DHT22;10102;50.828;4.416;2024-03-23T01:26:17;9.90;99.90
19880;DHT22;10102;50.828;4.416;2024-03-23T01:28:42;9.80;99.90
19880;DHT22;10102;50.828;4.416;2024-03-23T01:31:08;9.80;99.90
19880;DHT22;10102;50.828;4.416;2024-03-23T01:33:34;9.80;99.90
19880;DHT22;10102;50.828;4.416;2024-03-23T01:35:59;9.90;99.90
19880;DHT22;10102;50.828;4.416;2024-03-23T01:38:25;9.90;99.90
19880;DHT22;10102;50.828;4.416;2024-03-23T01:40:56;9.90;99.90
19880;DHT22;10102;50.828;4.416;2024-03-23T01:43:23;9.80;99.90
19880;DHT22;10102;50.828;4.416;2024-03-23T01:45:48;9.90;99.90
19880;DHT22;10102;50.828;4.416;2024-03-23T01:48:14;9.80;99.90
19880;DHT22;10102;50.828;4.416;2024-03-23T01:50:40;9.70;99.90
19880;DHT22;10102;50.828;4.416;2024-03-23T01:53:06;9.70;99.90
19880;DHT22;10102;50.828;4.416;2024-03-23T01:55:33;9.70;99.90
19880;DHT22;10102;50.828;4.416;2024-03-23T01:57:59;9.70;99.90
19880;DHT22;10102;50.828;4.416;2024-03-23T02:00:24;9.80;99.90
19880;DHT22;10102;50.828;4.416;2024-03-23T02:07:44;9.60;99.90
19880;DHT22;10102;50.828;4.416;2024-03-23T02:10:10;9.60;99.90
19880;DHT22;10102;50.828;4.416;2024-03-23T02:12:38;9.50;99.90
19880;DHT22;10102;50.828;4.416;2024-03-23T02:15:04;9.60;99.90
19880;DHT22;10102;50.828;4.416;2024-03-23T02:17:32;9.70;99.90
19880;DHT22;10102;50.828;4.416;2024-03-23T02:19:58;9.60;99.90
19880;DHT22;10102;50.828;4.416;2024-03-23T02:22:24;9.30;99.90
19880;DHT22;10102;50.828;4.416;2024-03-23T02:24:50;9.70;99.90
19880;DHT22;10102;50.828;4.416;2024-03-23T02:27:16;9.60;99.90
19880;DHT22;10102;50.828;4.416;2024-03-23T02:32:07;9.40;99.90
19880;DHT22;10102;50.828;4.416;2024-03-23T02:34:35;9.50;99.90
19880;DHT22;10102;50.828;4.416;2024-03-23T02:37:00;9.40;99.90
19880;DHT22;10102;50.828;4.416;2024-03-23T02:39:26;9.50;99.90
19880;DHT22;10102;50.828;4.416;2024-03-23T02:44:18;9.50;99.90
19880;DHT22;10102;50.828;4.416;2024-03-23T02:46:43;9.30;99.90
19880;DHT22;10102;50.828;4.416;2024-03-23T02:49:09;9.50;99.90
19880;DHT22;10102;50.828;4.416;2024-03-23T02:51:35;9.40;99.90
19880;DHT22;10102;50.828;4.416;2024-03-23T02:56:27;9.30;99.90
19880;DHT22;10102;50.828;4.416;2024-03-23T03:01:18;9.30;99.90
19880;DHT22;10102;50.828;4.416;2024-03-23T03:03:44;9.30;99.90
19880;DHT22;10102;50.828;4.416;2024-03-23T03:06:10;9.20;99.90
19880;DHT22;10102;50.828;4.416;2024-03-23T03:13:27;9.40;99.90
19880;DHT22;10102;50.828;4.416;2024-03-23T03:15:53;9.40;99.90
19880;DHT22;10102;50.828;4.416;2024-03-23T03:18:20;9.20;99.90
19880;DHT22;10102;50.828;4.416;2024-03-23T03:20:45;9.50;99.90
19880;DHT22;10102;50.828;4.416;2024-03-23T03:25:37;9.40;99.90
19880;DHT22;10102;50.828;4.416;2024-03-23T03:28:03;9.40;99.90
19880;DHT22;10102;50.828;4.416;2024-03-23T03:30:29;9.10;99.90
19880;DHT22;10102;50.828;4.416;2024-03-23T03:32:55;9.10;99.90
19880;DHT22;10102;50.828;4.416;2024-03-23T03:35:21;9.10;99.90
19880;DHT22;10102;50.828;4.416;2024-03-23T03:40:13;9.50;99.90
19880;DHT22;10102;50.828;4.416;2024-03-23T03:45:07;9.10;99.90
19880;DHT22;10102;50.828;4.416;2024-03-23T03:47:32;9.00;99.90
19880;DHT22;10102;50.828;4.416;2024-03-23T03:49:58;9.00;99.90
19880;DHT22;10102;50.828;4.416;2024-03-23T03:52:24;8.80;99.90
19880;DHT22;10102;50.828;4.416;2024-03-23T03:54:49;9.00;99.90
19880;DHT22;10102;50.828;4.416;2024-03-23T03:57:15;9.10;99.90
19880;DHT22;10102;50.828;4.416;2024-03-23T03:59:41;8.80;99.90
19880;DHT22;10102;50.828;4.416;2024-03-23T04:02:06;8.70;99.90
19880;DHT22;10102;50.828;4.416;2024-03-23T04:07:02;8.90;99.90
19880;DHT22;10102;50.828;4.416;2024-03-23T04:09:28;9.00;99.90
19880;DHT22;10102;50.828;4.416;2024-03-23T04:14:20;8.90;99.90
19880;DHT22;10102;50.828;4.416;2024-03-23T04:16:45;9.00;99.90
19880;DHT22;10102;50.828;4.416;2024-03-23T04:21:37;8.90;99.90
19880;DHT22;10102;50.828;4.416;2024-03-23T04:24:04;8.70;99.90
19880;DHT22;10102;50.828;4.416;2024-03-23T04:26:29;8.90;99.90
19880;DHT22;10102;50.828;4.416;2024-03-23T04:28:55;8.80;99.90
19880;DHT22;10102;50.828;4.416;2024-03-23T04:31:21;9.00;99.90
19880;DHT22;10102;50.828;4.416;2024-03-23T04:33:47;8.90;99.90
19880;DHT22;10102;50.828;4.416;2024-03-23T04:36:13;8.90;99.90
19880;DHT22;10102;50.828;4.416;2024-03-23T04:38:38;8.80;99.90
19880;DHT22;10102;50.828;4.416;2024-03-23T04:41:04;8.70;99.90
19880;DHT22;10102;50.828;4.416;2024-03-23T04:43:30;8.90;99.90
19880;DHT22;10102;50.828;4.416;2024-03-23T04:45:56;8.90;99.90
19880;DHT22;10102;50.828;4.416;2024-03-23T04:48:22;9.00;99.90
19880;DHT22;10102;50.828;4.416;2024-03-23T04:50:49;9.00;99.90
19880;DHT22;10102;50.828;4.416;2024-03-23T04:55:42;8.70;99.90
19880;DHT22;10102;50.828;4.416;2024-03-23T05:00:34;8.40;99.90
19880;DHT22;10102;50.828;4.416;2024-03-23T05:03:00;8.40;99.90
19880;DHT22;10102;50.828;4.416;2024-03-23T05:05:25;8.30;99.90
19880;DHT22;10102;50.828;4.416;2024-03-23T05:10:17;8.20;99.90
19880;DHT22;10102;50.828;4.416;2024-03-23T05:12:43;8.30;99.90
19880;DHT22;10102;50.828;4.416;2024-03-23T05:15:10;8.40;99.90
19880;DHT22;10102;50.828;4.416;2024-03-23T05:17:36;8.20;99.90
19880;DHT22;10102;50.828;4.416;2024-03-23T05:22:29;8.30;99.90
19880;DHT22;10102;50.828;4.416;2024-03-23T05:24:56;8.20;99.90
19880;DHT22;10102;50.828;4.416;2024-03-23T05:27:22;8.40;99.90
19880;DHT22;10102;50.828;4.416;2024-03-23T05:29:48;8.30;99.90
19880;DHT22;10102;50.828;4.416;2024-03-23T05:32:14;8.20;99.90
19880;DHT22;10102;50.828;4.416;2024-03-23T05:34:40;8.40;99.90
19880;DHT22;10102;50.828;4.416;2024-03-23T05:37:05;8.40;99.90
19880;DHT22;10102;50.828;4.416;2024-03-23T05:39:32;8.40;99.90
19880;DHT22;10102;50.828;4.416;2024-03-23T05:41:59;8.50;99.90
19880;DHT22;10102;50.828;4.416;2024-03-23T05:44:24;8.40;99.90
19880;DHT22;10102;50.828;4.416;2024-03-23T05:46:50;8.30;99.90
19880;DHT22;10102;50.828;4.416;2024-03-23T05:49:16;8.30;99.90
19880;DHT22;10102;50.828;4.416;2024-03-23T05:51:45;8.30;99.90
19880;DHT22;10102;50.828;4.416;2024-03-23T05:54:11;8.30;99.90
19880;DHT22;10102;50.828;4.416;2024-03-23T06:01:29;8.30;99.90
19880;DHT22;10102;50.828;4.416;2024-03-23T06:03:58;8.30;99.90
19880;DHT22;10102;50.828;4.416;2024-03-23T06:06:23;8.20;99.90
19880;DHT22;10102;50.828;4.416;2024-03-23T06:11:15;8.30;99.90
19880;DHT22;10102;50.828;4.416;2024-03-23T06:13:40;8.40;99.90
19880;DHT22;10102;50.828;4.416;2024-03-23T06:16:06;8.50;99.90
19880;DHT22;10102;50.828;4.416;2024-03-23T06:18:32;8.00;99.90
19880;DHT22;10102;50.828;4.416;2024-03-23T06:20:58;8.30;99.90
19880;DHT22;10102;50.828;4.416;2024-03-23T06:25:51;8.50;99.90
19880;DHT22;10102;50.828;4.416;2024-03-23T06:28:16;8.40;99.90
19880;DHT22;10102;50.828;4.416;2024-03-23T06:30:43;8.30;99.90
19880;DHT22;10102;50.828;4.416;2024-03-23T06:38:01;8.30;99.90
19880;DHT22;10102;50.828;4.416;2024-03-23T06:40:27;8.40;99.90
19880;DHT22;10102;50.828;4.416;2024-03-23T06:42:53;8.20;99.90
19880;DHT22;10102;50.828;4.416;2024-03-23T06:45:18;8.60;99.90
19880;DHT22;10102;50.828;4.416;2024-03-23T06:50:14;8.90;99.90
19880;DHT22;10102;50.828;4.416;2024-03-23T06:55:06;9.00;99.90
19880;DHT22;10102;50.828;4.416;2024-03-23T06:57:32;8.90;99.90
19880;DHT22;10102;50.828;4.416;2024-03-23T06:59:58;9.00;99.90
19880;DHT22;10102;50.828;4.416;2024-03-23T07:04:49;8.60;99.90
19880;DHT22;10102;50.828;4.416;2024-03-23T07:07:15;8.70;99.90
19880;DHT22;10102;50.828;4.416;2024-03-23T07:09:41;8.50;99.90
19880;DHT22;10102;50.828;4.416;2024-03-23T07:12:07;8.40;99.90
19880;DHT22;10102;50.828;4.416;2024-03-23T07:16:58;7.80;99.90
19880;DHT22;10102;50.828;4.416;2024-03-23T07:19:24;7.50;99.90
19880;DHT22;10102;50.828;4.416;2024-03-23T07:21:50;7.50;99.90
19880;DHT22;10102;50.828;4.416;2024-03-23T07:29:08;7.50;99.90
19880;DHT22;10102;50.828;4.416;2024-03-23T07:31:33;7.50;99.90
19880;DHT22;10102;50.828;4.416;2024-03-23T07:33:59;7.30;99.90
19880;DHT22;10102;50.828;4.416;2024-03-23T07:38:51;7.20;99.90
19880;DHT22;10102;50.828;4.416;2024-03-23T07:41:18;7.50;99.90
19880;DHT22;10102;50.828;4.416;2024-03-23T07:43:45;7.60;99.90
19880;DHT22;10102;50.828;4.416;2024-03-23T07:46:11;7.60;99.90
19880;DHT22;10102;50.828;4.416;2024-03-23T07:48:37;7.60;99.90
19880;DHT22;10102;50.828;4.416;2024-03-23T07:51:11;7.70;99.90
19880;DHT22;10102;50.828;4.416;2024-03-23T07:53:37;7.60;99.90
19880;DHT22;10102;50.828;4.416;2024-03-23T07:56:08;7.70;99.90
19880;DHT22;10102;50.828;4.416;2024-03-23T07:58:34;7.80;99.90
19880;DHT22;10102;50.828;4.416;2024-03-23T08:03:37;7.70;99.90
19880;DHT22;10102;50.828;4.416;2024-03-23T08:06:14;7.70;99.90
19880;DHT22;10102;50.828;4.416;2024-03-23T08:08:41;8.00;99.90
19880;DHT22;10102;50.828;4.416;2024-03-23T08:11:07;8.20;99.90
19880;DHT22;10102;50.828;4.416;2024-03-23T08:13:39;8.50;99.90
19880;DHT22;10102;50.828;4.416;2024-03-23T08:18:32;8.40;99.90
19880;DHT22;10102;50.828;4.416;2024-03-23T08:20:58;8.30;99.90
19880;DHT22;10102;50.828;4.416;2024-03-23T08:23:25;8.30;99.90
19880;DHT22;10102;50.828;4.416;2024-03-23T08:25:52;8.30;99.90
19880;DHT22;10102;50.828;4.416;2024-03-23T08:28:18;8.30;99.90
19880;DHT22;10102;50.828;4.416;2024-03-23T08:30:43;8.60;99.90
19880;DHT22;10102;50.828;4.416;2024-03-23T08:33:09;8.80;99.90
19880;DHT22;10102;50.828;4.416;2024-03-23T08:35:35;8.90;99.90
19880;DHT22;10102;50.828;4.416;2024-03-23T08:38:00;9.10;99.90
19880;DHT22;10102;50.828;4.416;2024-03-23T08:40:26;9.20;99.90
19880;DHT22;10102;50.828;4.416;2024-03-23T08:42:52;9.40;99.90
19880;DHT22;10102;50.828;4.416;2024-03-23T08:45:17;9.50;99.90
19880;DHT22;10102;50.828;4.416;2024-03-23T08:50:09;9.60;99.90
19880;DHT22;10102;50.828;4.416;2024-03-23T08:52:35;9.50;99.90
19880;DHT22;10102;50.828;4.416;2024-03-23T08:57:27;9.30;99.90
19880;DHT22;10102;50.828;4.416;2024-03-23T09:04:45;9.20;99.90
19880;DHT22;10102;50.828;4.416;2024-03-23T09:09:40;10.00;99.90
19880;DHT22;10102;50.828;4.416;2024-03-23T09:12:06;10.10;99.90
19880;DHT22;10102;50.828;4.416;2024-03-23T09:14:33;10.00;99.90
19880;DHT22;10102;50.828;4.416;2024-03-23T09:16:59;9.50;99.90
19880;DHT22;10102;50.828;4.416;2024-03-23T09:19:29;9.60;99.90
19880;DHT22;10102;50.828;4.416;2024-03-23T09:21:55;9.40;99.90
19880;DHT22;10102;50.828;4.416;2024-03-23T09:24:21;9.30;99.90
19880;DHT22;10102;50.828;4.416;2024-03-23T09:26:47;9.40;99.90
19880;DHT22;10102;50.828;4.416;2024-03-23T09:29:13;9.60;99.90
19880;DHT22;10102;50.828;4.416;2024-03-23T09:31:39;9.80;99.90
19880;DHT22;10102;50.828;4.416;2024-03-23T09:34:06;9.80;99.90
19880;DHT22;10102;50.828;4.416;2024-03-23T09:36:32;10.00;99.90
19880;DHT22;10102;50.828;4.416;2024-03-23T09:38:57;9.90;99.90
19880;DHT22;10102;50.828;4.416;2024-03-23T09:41:23;10.30;99.90
19880;DHT22;10102;50.828;4.416;2024-03-23T09:43:52;10.40;99.90
19880;DHT22;10102;50.828;4.416;2024-03-23T09:46:19;10.30;99.90
19880;DHT22;10102;50.828;4.416;2024-03-23T09:48:46;10.10;99.90
19880;DHT22;10102;50.828;4.416;2024-03-23T09:51:12;10.30;99.90
19880;DHT22;10102;50.828;4.416;2024-03-23T09:56:04;10.70;99.90
19880;DHT22;10102;50.828;4.416;2024-03-23T09:58:30;10.60;99.90
19880;DHT22;10102;50.828;4.416;2024-03-23T10:00:58;11.00;99.90
19880;DHT22;10102;50.828;4.416;2024-03-23T10:03:23;10.90;99.90
19880;DHT22;10102;50.828;4.416;2024-03-23T10:06:01;10.90;99.90
19880;DHT22;10102;50.828;4.416;2024-03-23T10:08:28;10.90;99.90
19880;DHT22;10102;50.828;4.416;2024-03-23T10:13:27;11.00;99.90
19880;DHT22;10102;50.828;4.416;2024-03-23T10:15:58;10.90;99.90
19880;DHT22;10102;50.828;4.416;2024-03-23T10:18:25;11.00;99.90
19880;DHT22;10102;50.828;4.416;2024-03-23T10:21:11;11.30;99.90
19880;DHT22;10102;50.828;4.416;2024-03-23T10:23:43;11.10;99.90
19880;DHT22;10102;50.828;4.416;2024-03-23T10:26:21;11.20;99.90
19880;DHT22;10102;50.828;4.416;2024-03-23T10:28:55;11.10;99.90
19880;DHT22;10102;50.828;4.416;2024-03-23T10:31:29;11.50;99.90
19880;DHT22;10102;50.828;4.416;2024-03-23T10:33:55;11.20;99.90
19880;DHT22;10102;50.828;4.416;2024-03-23T10:36:23;11.00;99.90
19880;DHT22;10102;50.828;4.416;2024-03-23T10:38:50;10.90;99.90
19880;DHT22;10102;50.828;4.416;2024-03-23T10:41:17;11.00;99.90
19880;DHT22;10102;50.828;4.416;2024-03-23T10:43:43;11.10;99.90
19880;DHT22;10102;50.828;4.416;2024-03-23T10:46:10;11.60;99.90
19880;DHT22;10102;50.828;4.416;2024-03-23T10:48:36;12.10;99.90
19880;DHT22;10102;50.828;4.416;2024-03-23T10:51:01;12.80;99.90
19880;DHT22;10102;50.828;4.416;2024-03-23T10:53:28;13.50;99.90
19880;DHT22;10102;50.828;4.416;2024-03-23T10:55:55;13.70;99.90
19880;DHT22;10102;50.828;4.416;2024-03-23T11:00:56;14.30;99.90
19880;DHT22;10102;50.828;4.416;2024-03-23T11:03:36;15.90;99.90
19880;DHT22;10102;50.828;4.416;2024-03-23T11:06:03;17.30;99.90
19880;DHT22;10102;50.828;4.416;2024-03-23T11:08:36;18.50;99.90
19880;DHT22;10102;50.828;4.416;2024-03-23T11:11:17;17.70;99.90
19880;DHT22;10102;50.828;4.416;2024-03-23T11:13:47;17.10;99.90
19880;DHT22;10102;50.828;4.416;2024-03-23T11:16:23;18.50;99.90
19880;DHT22;10102;50.828;4.416;2024-03-23T11:18:51;20.40;99.90
19880;DHT22;10102;50.828;4.416;2024-03-23T11:21:52;22.00;99.90
19880;DHT22;10102;50.828;4.416;2024-03-23T11:24:21;20.10;99.90
19880;DHT22;10102;50.828;4.416;2024-03-23T11:26:48;17.90;99.90
19880;DHT22;10102;50.828;4.416;2024-03-23T11:29:15;16.60;99.90
19880;DHT22;10102;50.828;4.416;2024-03-23T11:31:52;16.70;99.90
19880;DHT22;10102;50.828;4.416;2024-03-23T11:34:21;16.10;99.90
19880;DHT22;10102;50.828;4.416;2024-03-23T11:39:17;19.20;99.90
19880;DHT22;10102;50.828;4.416;2024-03-23T11:41:51;19.00;99.90
19880;DHT22;10102;50.828;4.416;2024-03-23T11:44:21;20.70;99.90
19880;DHT22;10102;50.828;4.416;2024-03-23T11:46:51;20.50;99.90
19880;DHT22;10102;50.828;4.416;2024-03-23T11:49:24;18.40;99.90
19880;DHT22;10102;50.828;4.416;2024-03-23T11:51:51;17.70;99.90
19880;DHT22;10102;50.828;4.416;2024-03-23T11:54:23;17.70;99.90
19880;DHT22;10102;50.828;4.416;2024-03-23T11:57:03;20.40;99.90
19880;DHT22;10102;50.828;4.416;2024-03-23T11:59:41;19.70;99.90
19880;DHT22;10102;50.828;4.416;2024-03-23T12:02:08;18.50;99.90
19880;DHT22;10102;50.828;4.416;2024-03-23T12:04:35;16.20;99.90
19880;DHT22;10102;50.828;4.416;2024-03-23T12:09:36;15.00;99.90
19880;DHT22;10102;50.828;4.416;2024-03-23T12:12:10;14.70;99.90
19880;DHT22;10102;50.828;4.416;2024-03-23T12:14:36;14.10;99.90
19880;DHT22;10102;50.828;4.416;2024-03-23T12:17:28;12.90;99.90
19880;DHT22;10102;50.828;4.416;2024-03-23T12:19:54;12.70;99.90
19880;DHT22;10102;50.828;4.416;2024-03-23T12:22:23;12.80;99.90
19880;DHT22;10102;50.828;4.416;2024-03-23T12:24:50;12.70;99.90
19880;DHT22;10102;50.828;4.416;2024-03-23T12:27:16;12.50;99.90
19880;DHT22;10102;50.828;4.416;2024-03-23T12:29:41;12.60;99.90
19880;DHT22;10102;50.828;4.416;2024-03-23T12:32:09;12.50;99.90
19880;DHT22;10102;50.828;4.416;2024-03-23T12:34:37;12.30;99.90
19880;DHT22;10102;50.828;4.416;2024-03-23T12:37:04;12.20;99.90
19880;DHT22;10102;50.828;4.416;2024-03-23T12:39:29;12.60;99.90
19880;DHT22;10102;50.828;4.416;2024-03-23T12:41:55;14.50;99.90
19880;DHT22;10102;50.828;4.416;2024-03-23T12:44:21;16.30;99.90
19880;DHT22;10102;50.828;4.416;2024-03-23T12:46:48;19.10;99.90
19880;DHT22;10102;50.828;4.416;2024-03-23T12:49:14;22.10;99.90
19880;DHT22;10102;50.828;4.416;2024-03-23T12:51:48;22.70;99.90
19880;DHT22;10102;50.828;4.416;2024-03-23T12:54:18;22.70;99.90
19880;DHT22;10102;50.828;4.416;2024-03-23T12:56:44;23.90;99.90
19880;DHT22;10102;50.828;4.416;2024-03-23T12:59:11;23.80;95.10
19880;DHT22;10102;50.828;4.416;2024-03-23T13:01:36;24.40;99.90
19880;DHT22;10102;50.828;4.416;2024-03-23T13:04:02;23.80;99.90
19880;DHT22;10102;50.828;4.416;2024-03-23T13:06:28;23.50;93.50
19880;DHT22;10102;50.828;4.416;2024-03-23T13:08:57;23.00;96.60
19880;DHT22;10102;50.828;4.416;2024-03-23T13:11:23;21.80;97.20
19880;DHT22;10102;50.828;4.416;2024-03-23T13:13:49;21.20;98.20
19880;DHT22;10102;50.828;4.416;2024-03-23T13:16:14;22.10;98.10
19880;DHT22;10102;50.828;4.416;2024-03-23T13:21:06;21.00;98.90
19880;DHT22;10102;50.828;4.416;2024-03-23T13:23:32;20.40;99.90
19880;DHT22;10102;50.828;4.416;2024-03-23T13:25:59;18.00;99.90
19880;DHT22;10102;50.828;4.416;2024-03-23T13:28:25;16.80;99.90
19880;DHT22;10102;50.828;4.416;2024-03-23T13:30:55;16.30;99.90
19880;DHT22;10102;50.828;4.416;2024-03-23T13:35:54;15.10;99.90
19880;DHT22;10102;50.828;4.416;2024-03-23T13:38:23;15.20;99.90
19880;DHT22;10102;50.828;4.416;2024-03-23T13:40:53;14.70;99.90
19880;DHT22;10102;50.828;4.416;2024-03-23T13:43:19;14.30;99.90
19880;DHT22;10102;50.828;4.416;2024-03-23T13:45:48;14.60;99.90
19880;DHT22;10102;50.828;4.416;2024-03-23T13:48:16;14.50;99.90
19880;DHT22;10102;50.828;4.416;2024-03-23T13:50:42;13.90;99.90
19880;DHT22;10102;50.828;4.416;2024-03-23T13:53:07;14.00;99.90
19880;DHT22;10102;50.828;4.416;2024-03-23T13:55:34;13.20;99.90
19880;DHT22;10102;50.828;4.416;2024-03-23T14:00:26;12.40;99.90
19880;DHT22;10102;50.828;4.416;2024-03-23T14:02:51;12.20;99.90
19880;DHT22;10102;50.828;4.416;2024-03-23T14:05:17;12.50;99.90
19880;DHT22;10102;50.828;4.416;2024-03-23T14:07:43;13.00;99.90
19880;DHT22;10102;50.828;4.416;2024-03-23T14:10:08;12.80;99.90
19880;DHT22;10102;50.828;4.416;2024-03-23T14:12:37;12.70;99.90
19880;DHT22;10102;50.828;4.416;2024-03-23T14:15:06;13.00;99.90
19880;DHT22;10102;50.828;4.416;2024-03-23T14:17:32;12.60;99.90
19880;DHT22;10102;50.828;4.416;2024-03-23T14:19:58;12.30;99.90
19880;DHT22;10102;50.828;4.416;2024-03-23T14:22:27;12.20;99.90
19880;DHT22;10102;50.828;4.416;2024-03-23T14:24:53;12.50;99.90
19880;DHT22;10102;50.828;4.416;2024-03-23T14:27:19;12.50;99.90
19880;DHT22;10102;50.828;4.416;2024-03-23T14:29:48;12.70;99.90
19880;DHT22;10102;50.828;4.416;2024-03-23T14:32:14;12.30;99.90
19880;DHT22;10102;50.828;4.416;2024-03-23T14:34:41;12.70;99.90
19880;DHT22;10102;50.828;4.416;2024-03-23T14:37:07;12.60;99.90
19880;DHT22;10102;50.828;4.416;2024-03-23T14:39:33;12.60;99.90
19880;DHT22;10102;50.828;4.416;2024-03-23T14:42:04;12.80;99.90
19880;DHT22;10102;50.828;4.416;2024-03-23T14:44:31;12.90;99.90
19880;DHT22;10102;50.828;4.416;2024-03-23T14:46:57;13.00;99.90
19880;DHT22;10102;50.828;4.416;2024-03-23T14:49:23;12.70;99.90
19880;DHT22;10102;50.828;4.416;2024-03-23T14:51:49;12.50;99.90
19880;DHT22;10102;50.828;4.416;2024-03-23T14:54:15;12.30;99.90
19880;DHT22;10102;50.828;4.416;2024-03-23T14:56:41;12.30;99.90
19880;DHT22;10102;50.828;4.416;2024-03-23T15:01:33;12.60;99.90
19880;DHT22;10102;50.828;4.416;2024-03-23T15:06:25;12.20;99.90
19880;DHT22;10102;50.828;4.416;2024-03-23T15:08:51;12.50;99.90
19880;DHT22;10102;50.828;4.416;2024-03-23T15:11:16;12.70;99.90
19880;DHT22;10102;50.828;4.416;2024-03-23T15:13:45;12.70;99.90
19880;DHT22;10102;50.828;4.416;2024-03-23T15:16:16;12.80;99.90
19880;DHT22;10102;50.828;4.416;2024-03-23T15:18:43;13.00;99.90
19880;DHT22;10102;50.828;4.416;2024-03-23T15:21:09;13.10;99.90
19880;DHT22;10102;50.828;4.416;2024-03-23T15:26:03;13.30;99.90
19880;DHT22;10102;50.828;4.416;2024-03-23T15:28:29;13.00;99.90
19880;DHT22;10102;50.828;4.416;2024-03-23T15:31:10;12.90;99.90
19880;DHT22;10102;50.828;4.416;2024-03-23T15:33:36;12.90;99.90
19880;DHT22;10102;50.828;4.416;2024-03-23T15:36:02;12.80;99.90
19880;DHT22;10102;50.828;4.416;2024-03-23T15:38:28;12.40;99.90
19880;DHT22;10102;50.828;4.416;2024-03-23T15:40:57;12.10;99.90
19880;DHT22;10102;50.828;4.416;2024-03-23T15:43:23;12.10;99.90
19880;DHT22;10102;50.828;4.416;2024-03-23T15:46:07;12.20;99.90
19880;DHT22;10102;50.828;4.416;2024-03-23T15:48:35;12.20;99.90
19880;DHT22;10102;50.828;4.416;2024-03-23T15:51:02;12.00;99.90
19880;DHT22;10102;50.828;4.416;2024-03-23T15:53:29;12.00;99.90
19880;DHT22;10102;50.828;4.416;2024-03-23T15:58:24;11.90;99.90
19880;DHT22;10102;50.828;4.416;2024-03-23T16:01:06;12.00;99.90
19880;DHT22;10102;50.828;4.416;2024-03-23T16:03:38;12.10;99.90
19880;DHT22;10102;50.828;4.416;2024-03-23T16:06:06;12.40;99.90
19880;DHT22;10102;50.828;4.416;2024-03-23T16:08:33;12.70;99.90
19880;DHT22;10102;50.828;4.416;2024-03-23T16:11:06;12.90;99.90
19880;DHT22;10102;50.828;4.416;2024-03-23T16:13:35;12.70;99.90
19880;DHT22;10102;50.828;4.416;2024-03-23T16:16:02;12.90;99.90
19880;DHT22;10102;50.828;4.416;2024-03-23T16:18:33;13.30;99.90
19880;DHT22;10102;50.828;4.416;2024-03-23T16:21:01;13.40;99.90
19880;DHT22;10102;50.828;4.416;2024-03-23T16:23:27;13.00;99.90
19880;DHT22;10102;50.828;4.416;2024-03-23T16:25:54;12.30;99.90
19880;DHT22;10102;50.828;4.416;2024-03-23T16:28:34;12.20;99.90
19880;DHT22;10102;50.828;4.416;2024-03-23T16:31:02;12.40;99.90
19880;DHT22;10102;50.828;4.416;2024-03-23T16:33:28;12.00;99.90
19880;DHT22;10102;50.828;4.416;2024-03-23T16:36:08;12.10;99.90
19880;DHT22;10102;50.828;4.416;2024-03-23T16:41:04;12.20;99.90
19880;DHT22;10102;50.828;4.416;2024-03-23T16:43:33;12.40;99.90
19880;DHT22;10102;50.828;4.416;2024-03-23T16:46:01;12.20;99.90
19880;DHT22;10102;50.828;4.416;2024-03-23T16:48:29;12.30;99.90
19880;DHT22;10102;50.828;4.416;2024-03-23T16:50:59;12.30;99.90
19880;DHT22;10102;50.828;4.416;2024-03-23T16:53:26;12.20;99.90
19880;DHT22;10102;50.828;4.416;2024-03-23T16:55:59;12.20;99.90
19880;DHT22;10102;50.828;4.416;2024-03-23T16:58:29;12.20;99.90
19880;DHT22;10102;50.828;4.416;2024-03-23T17:00:56;12.00;99.90
19880;DHT22;10102;50.828;4.416;2024-03-23T17:03:23;11.90;99.90
19880;DHT22;10102;50.828;4.416;2024-03-23T17:05:49;11.50;99.90
19880;DHT22;10102;50.828;4.416;2024-03-23T17:08:16;12.00;99.90
19880;DHT22;10102;50.828;4.416;2024-03-23T17:10:42;11.40;99.90
19880;DHT22;10102;50.828;4.416;2024-03-23T17:13:08;11.40;99.90
19880;DHT22;10102;50.828;4.416;2024-03-23T17:15:42;11.50;99.90
19880;DHT22;10102;50.828;4.416;2024-03-23T17:18:09;11.50;99.90
19880;DHT22;10102;50.828;4.416;2024-03-23T17:20:35;11.20;99.90
19880;DHT22;10102;50.828;4.416;2024-03-23T17:23:01;11.20;99.90
19880;DHT22;10102;50.828;4.416;2024-03-23T17:25:26;11.00;99.90
19880;DHT22;10102;50.828;4.416;2024-03-23T17:32:45;11.00;99.90
19880;DHT22;10102;50.828;4.416;2024-03-23T17:35:14;11.00;99.90
19880;DHT22;10102;50.828;4.416;2024-03-23T17:37:40;11.20;99.90
19880;DHT22;10102;50.828;4.416;2024-03-23T17:40:07;11.20;99.90
19880;DHT22;10102;50.828;4.416;2024-03-23T17:42:37;11.30;99.90
19880;DHT22;10102;50.828;4.416;2024-03-23T17:45:04;11.20;99.90
19880;DHT22;10102;50.828;4.416;2024-03-23T17:47:37;11.00;99.90
19880;DHT22;10102;50.828;4.416;2024-03-23T17:50:04;10.70;99.90
19880;DHT22;10102;50.828;4.416;2024-03-23T17:52:30;10.90;99.90
19880;DHT22;10102;50.828;4.416;2024-03-23T17:54:56;10.60;99.90
19880;DHT22;10102;50.828;4.416;2024-03-23T17:59:48;10.30;99.90
19880;DHT22;10102;50.828;4.416;2024-03-23T18:04:44;9.50;99.90
19880;DHT22;10102;50.828;4.416;2024-03-23T18:07:10;9.00;99.90
19880;DHT22;10102;50.828;4.416;2024-03-23T18:09:36;9.30;99.90
19880;DHT22;10102;50.828;4.416;2024-03-23T18:12:02;9.10;99.90
19880;DHT22;10102;50.828;4.416;2024-03-23T18:14:28;8.90;99.90
19880;DHT22;10102;50.828;4.416;2024-03-23T18:16:54;8.90;99.90
19880;DHT22;10102;50.828;4.416;2024-03-23T18:19:20;9.10;99.90
19880;DHT22;10102;50.828;4.416;2024-03-23T18:21:45;9.20;99.90
19880;DHT22;10102;50.828;4.416;2024-03-23T18:24:11;9.20;99.90
19880;DHT22;10102;50.828;4.416;2024-03-23T18:26:37;9.20;99.90
19880;DHT22;10102;50.828;4.416;2024-03-23T18:29:03;9.20;99.90
19880;DHT22;10102;50.828;4.416;2024-03-23T18:31:29;9.50;99.90
19880;DHT22;10102;50.828;4.416;2024-03-23T18:33:54;9.40;99.90
19880;DHT22;10102;50.828;4.416;2024-03-23T18:36:25;9.60;99.90
19880;DHT22;10102;50.828;4.416;2024-03-23T18:38:51;9.50;99.90
19880;DHT22;10102;50.828;4.416;2024-03-23T18:41:17;9.40;99.90
19880;DHT22;10102;50.828;4.416;2024-03-23T18:43:46;9.60;99.90
19880;DHT22;10102;50.828;4.416;2024-03-23T18:46:12;9.70;99.90